• Join FlightAware (Why Join?)
  • Login
  • US Flag 
01:11AM EST


 

Airport Tracker/Info


-or-


 

Live Flight TrackerFlight Track Log ✈ AFR7363 ✈ 20-Jul-2014 ✈ LFRB / BES - LFPO / ORY

Flight Track Log - Related Links

Times and Time Zones

All times are in EDT time to prevent confusion due to time zone crossing. See the AFR7363 flight status page for this flight to view local times or setup timezone preferences in your user account.

Time Position Orientation Groundspeed Altitude Reporting Facility
EDT Latitude Longitude Course Direction KTS MPH feet Rate Location/Type
01:57AM 48.4991 -3.6583 84° East  Level Estimated
01:58AM 48.5051 -3.5631 84° East  Level Estimated
01:59AM 48.5128 -3.4403 85° East  Level Estimated
02:00AM 48.5203 -3.3174 85° East  Level Estimated
02:01AM 48.5278 -3.1944 85° East  Level Estimated
02:02AM 48.5350 -3.0715 85° East  Level Estimated
02:03AM 48.5422 -2.9485 85° East  Level Estimated
02:04AM 48.5492 -2.8255 85° East  Level Estimated
02:05AM 48.5564 -2.6978 85° East  Level Estimated
02:06AM 48.5634 -2.5700 85° East  Level Estimated
02:07AM 48.5703 -2.4422 85° East  Level Estimated
02:08AM 48.5770 -2.3144 85° East  Level Estimated
02:09AM 48.5836 -2.1866 85° East  Level Estimated
02:10AM 48.5900 -2.0587 86° East  Level Estimated
02:11AM 48.5964 -1.9308 86° East  Level Estimated
02:12AM 48.6025 -1.8028 86° East  Level Estimated
02:13AM 48.6085 -1.6748 86° East  Level Estimated
02:14AM 48.6144 -1.5468 86° East  Level Estimated
02:15AM 48.6202 -1.4188 86° East  Level Estimated
02:16AM 48.6258 -1.2907 86° East  Level Estimated
02:17AM 48.6312 -1.1626 86° East  Level Estimated
02:18AM 48.6365 -1.0345 86° East  Level Estimated
02:19AM 48.6417 -0.9064 86° East  Level Estimated
02:20AM 48.6467 -0.7782 87° East  Level Estimated
02:21AM 48.6516 -0.6500 87° East  Level Estimated
02:22AM 48.6563 -0.5218 87° East  Level Estimated
02:23AM 48.6609 -0.3936 87° East  Level Estimated
02:24AM 48.6654 -0.2653 87° East  Level Estimated
02:25AM 48.6697 -0.1370 87° East  Level Estimated
02:26AM 48.6739 -0.0087 87° East  Level Estimated
02:27AM 48.6779 0.1196 87° East  Level Estimated
02:28AM 48.6818 0.2480 87° East  Level Estimated
02:29AM 48.6856 0.3764 87° East  Level Estimated
02:30AM 48.6892 0.5048 88° East  Level Estimated
02:31AM 48.6926 0.6332 88° East  Level Estimated
02:32AM 48.6959 0.7616 88° East  Level Estimated
02:33AM 48.6991 0.8900 88° East  Level Estimated
02:34AM 48.7022 1.0185 88° East  Level Estimated
02:35AM 48.7051 1.1470 88° East  Level Estimated
02:36AM 48.7078 1.2755 88° East  Level Estimated
02:37AM 48.7104 1.4040 88° East  Level Estimated
02:38AM 48.7129 1.5325 88° East  Level Estimated
02:39AM 48.7152 1.6610 88° East  Level Estimated
02:40AM 48.7174 1.7896 88° East  Level Estimated
02:41AM 48.7194 1.9181 89° East  Level Estimated
02:42AM 48.7213 2.0467 89° East  Level Estimated
02:43AM 48.7230 2.1752 89° East  Level Estimated
02:44AM 48.7246 2.3038 89° East  Level Estimated
02:45AM 48.7253 2.3594 89° East  Level Estimated
02:46AM 48.7253 2.3594 North  Level Estimated
02:47AM 48.7253 2.3594 North  Level Estimated
02:48AM 48.7253 2.3594 North  Level Estimated
02:49AM 48.7253 2.3594 North  Level Estimated
02:50AM 48.7253 2.3594 North  Level Estimated
02:51AM 48.7253 2.3594 North  Level Estimated
02:52AM 48.7253 2.3594 North  Level Estimated
02:53AM 48.7253 2.3594 North  Level Estimated
02:54AM 48.7253 2.3594 North  Level Estimated
02:55AM 48.7253 2.3594 North  Level Estimated
02:56AM 48.7253 2.3594 North  Level Estimated
02:57AM 48.7253 2.3594 North  Level Estimated
02:58AM 48.7253 2.3594 North  Level Estimated
02:59AM 48.7253 2.3594 North  Level Estimated
03:00AM 48.7253 2.3594 North  Level Estimated
03:01AM 48.7253 2.3594 North  Level Estimated
03:02AM 48.7253 2.3594 North  Level Estimated
03:03AM 48.7253 2.3594 North  Level Estimated